createdAt,value
2023-04-19T00:01:50.787Z,9.10
2023-04-19T00:07:10.601Z,9.00
2023-04-19T00:17:53.621Z,9.00
2023-04-19T00:23:12.280Z,8.90
2023-04-19T00:28:24.268Z,8.90
2023-04-19T00:33:57.750Z,8.90
2023-04-19T00:39:25.423Z,8.80
2023-04-19T00:44:53.597Z,8.60
2023-04-19T00:50:12.257Z,8.30
2023-04-19T00:55:20.091Z,7.70
2023-04-19T01:00:37.927Z,7.40
2023-04-19T01:05:49.258Z,7.10
2023-04-19T01:17:38.015Z,6.80
2023-04-19T01:22:48.287Z,6.60
2023-04-19T01:28:05.710Z,6.60
2023-04-19T01:33:20.897Z,6.50
2023-04-19T01:38:31.463Z,6.60
2023-04-19T01:43:38.240Z,6.50
2023-04-19T01:49:01.619Z,6.30
2023-04-19T01:54:22.119Z,6.40
2023-04-19T01:59:42.545Z,6.20
2023-04-19T02:04:58.749Z,6.20
2023-04-19T02:10:46.701Z,6.10
2023-04-19T02:22:02.882Z,5.90
2023-04-19T02:27:13.522Z,5.70
2023-04-19T02:32:42.326Z,5.60
2023-04-19T02:38:19.023Z,5.50
2023-04-19T02:43:43.829Z,5.40
2023-04-19T02:49:10.012Z,5.40
2023-04-19T02:54:18.066Z,5.40
2023-04-19T02:59:39.696Z,5.30
2023-04-19T03:05:06.284Z,5.20
2023-04-19T03:10:41.785Z,5.20
2023-04-19T03:15:54.974Z,5.10
2023-04-19T03:21:22.993Z,5.00
2023-04-19T03:26:48.114Z,4.90
2023-04-19T03:32:24.935Z,4.90
2023-04-19T03:37:47.534Z,4.80
2023-04-19T03:43:09.077Z,4.80
2023-04-19T03:48:30.900Z,4.80
2023-04-19T03:54:13.236Z,4.80
2023-04-19T03:59:31.514Z,4.80
2023-04-19T04:05:08.032Z,4.80
2023-04-19T04:10:33.598Z,4.80
2023-04-19T04:16:27.237Z,4.80
2023-04-19T04:27:23.154Z,4.80
2023-04-19T04:38:50.964Z,4.80
2023-04-19T04:44:29.129Z,4.60
2023-04-19T04:49:40.920Z,4.70
2023-04-19T04:55:15.538Z,4.80
2023-04-19T05:00:51.855Z,4.80
2023-04-19T05:06:16.297Z,4.90
2023-04-19T05:11:48.321Z,5.00
2023-04-19T05:17:18.078Z,5.00
2023-04-19T05:22:56.050Z,5.10
2023-04-19T05:28:23.882Z,5.40
2023-04-19T05:39:52.945Z,5.40
2023-04-19T05:45:24.788Z,5.60
2023-04-19T05:50:50.400Z,5.70
2023-04-19T05:56:33.073Z,6.00
2023-04-19T06:02:09.679Z,6.10
2023-04-19T06:07:34.172Z,6.30
2023-04-19T06:13:24.921Z,6.20
2023-04-19T06:18:43.276Z,6.20
2023-04-19T06:24:12.163Z,6.10
2023-04-19T06:29:41.597Z,6.20
2023-04-19T06:35:14.579Z,6.20
2023-04-19T06:40:33.735Z,6.30
2023-04-19T06:46:11.290Z,6.40
2023-04-19T06:51:41.214Z,6.40
2023-04-19T07:02:40.006Z,6.30
2023-04-19T07:13:55.851Z,6.20
2023-04-19T07:19:10.082Z,6.30
2023-04-19T07:24:42.432Z,6.30
2023-04-19T07:29:58.732Z,6.50
2023-04-19T07:35:48.925Z,6.50
2023-04-19T07:40:58.870Z,6.60
2023-04-19T07:46:12.610Z,6.60
2023-04-19T07:51:25.941Z,6.60
2023-04-19T07:56:54.142Z,6.60
2023-04-19T08:02:36.118Z,6.80
2023-04-19T08:08:13.196Z,6.60
2023-04-19T08:13:32.816Z,6.80
2023-04-19T08:19:13.874Z,6.80
2023-04-19T08:25:07.860Z,7.00
2023-04-19T08:30:31.889Z,7.40
2023-04-19T08:36:01.719Z,7.50
2023-04-19T08:41:38.095Z,7.80
2023-04-19T08:46:55.151Z,8.10
2023-04-19T08:52:18.540Z,8.00
2023-04-19T08:57:38.371Z,7.80
2023-04-19T09:03:21.771Z,7.90
2023-04-19T09:08:45.239Z,7.60
2023-04-19T09:14:36.850Z,7.80
2023-04-19T09:26:11.398Z,6.60
2023-04-19T09:31:50.797Z,8.20
2023-04-19T09:43:15.146Z,9.00
2023-04-19T09:48:42.932Z,9.00
2023-04-19T09:54:25.271Z,8.60
2023-04-19T10:00:13.116Z,8.60
2023-04-19T10:05:51.981Z,8.60
2023-04-19T10:11:16.116Z,8.30
2023-04-19T10:17:01.485Z,6.40
2023-04-19T10:22:29.937Z,8.00
2023-04-19T10:28:02.096Z,7.90
2023-04-19T10:33:28.626Z,7.70
2023-04-19T10:38:59.446Z,7.90
2023-04-19T10:44:29.909Z,8.00
2023-04-19T10:50:03.786Z,8.10
2023-04-19T10:55:44.912Z,7.90
2023-04-19T11:01:47.314Z,6.30
2023-04-19T11:07:17.824Z,8.40
2023-04-19T11:12:37.252Z,8.80
2023-04-19T11:23:52.592Z,8.50
2023-04-19T11:29:34.928Z,8.30
2023-04-19T11:35:51.151Z,8.60
2023-04-19T11:41:44.463Z,8.50
2023-04-19T11:47:16.656Z,8.30
2023-04-19T11:52:34.671Z,8.50
2023-04-19T11:57:59.028Z,8.70
2023-04-19T12:09:03.928Z,8.60
2023-04-19T12:14:50.281Z,8.90
2023-04-19T12:20:45.462Z,9.00
2023-04-19T12:31:44.125Z,8.70
2023-04-19T12:37:04.912Z,8.70
2023-04-19T12:42:24.384Z,9.10
2023-04-19T12:59:06.962Z,9.80
2023-04-19T13:04:38.940Z,9.50
2023-04-19T13:10:20.750Z,9.20
2023-04-19T13:15:39.648Z,9.10
2023-04-19T13:21:10.029Z,9.10
2023-04-19T13:26:23.168Z,9.10
2023-04-19T13:36:55.779Z,8.70
2023-04-19T13:42:15.973Z,8.50
2023-04-19T13:47:29.129Z,8.60
2023-04-19T13:52:43.517Z,8.50
2023-04-19T13:57:59.592Z,8.50
2023-04-19T14:03:33.031Z,8.60
2023-04-19T14:09:01.499Z,8.60
2023-04-19T14:14:32.009Z,8.70
2023-04-19T14:20:23.729Z,8.90
2023-04-19T14:25:34.639Z,8.70
2023-04-19T14:31:02.818Z,8.80
2023-04-19T14:36:19.368Z,9.00
2023-04-19T14:42:00.174Z,9.10
2023-04-19T14:47:18.524Z,9.60
2023-04-19T14:53:00.312Z,9.70
2023-04-19T14:58:33.003Z,10.30
2023-04-19T15:03:40.986Z,10.60
2023-04-19T15:08:55.823Z,10.90
2023-04-19T15:14:10.309Z,11.10
2023-04-19T15:19:21.111Z,10.80
2023-04-19T15:24:44.719Z,10.50
2023-04-19T15:29:58.583Z,10.30
2023-04-19T15:35:42.141Z,10.10
2023-04-19T15:47:12.530Z,9.90
2023-04-19T15:52:25.819Z,9.70
2023-04-19T15:57:28.776Z,9.50
2023-04-19T16:02:34.175Z,9.20
2023-04-19T16:07:37.131Z,9.10
2023-04-19T16:12:39.861Z,9.00
2023-04-19T16:17:42.656Z,9.00
2023-04-19T16:22:45.446Z,9.00
2023-04-19T16:27:48.027Z,9.00
2023-04-19T16:32:50.836Z,9.00
2023-04-19T16:37:55.930Z,9.10
2023-04-19T16:43:00.229Z,9.00
2023-04-19T16:48:02.921Z,8.80
2023-04-19T16:53:05.727Z,8.80
2023-04-19T16:58:08.457Z,8.70
2023-04-19T17:03:11.949Z,8.80
2023-04-19T17:08:14.678Z,8.80
2023-04-19T17:13:17.246Z,8.70
2023-04-19T17:18:19.762Z,8.70
2023-04-19T17:23:22.325Z,8.60
2023-04-19T17:28:24.890Z,8.60
2023-04-19T17:33:27.376Z,8.50
2023-04-19T17:38:30.001Z,8.40
2023-04-19T17:43:32.666Z,8.30
2023-04-19T17:48:35.297Z,8.30
2023-04-19T17:53:37.998Z,8.20
2023-04-19T17:58:40.606Z,8.20
2023-04-19T18:03:43.483Z,8.20
2023-04-19T18:08:46.120Z,8.30
2023-04-19T18:13:48.714Z,8.20
2023-04-19T18:18:51.487Z,8.10
2023-04-19T18:23:54.824Z,8.10
2023-04-19T18:28:57.410Z,8.20
2023-04-19T18:34:01.285Z,8.10
2023-04-19T18:39:03.924Z,7.90
2023-04-19T18:44:35.475Z,7.90
2023-04-19T18:49:29.182Z,7.90
2023-04-19T18:54:31.671Z,7.90
2023-04-19T18:59:34.308Z,8.00
2023-04-19T19:04:50.112Z,8.00
2023-04-19T19:09:56.536Z,8.00
2023-04-19T19:14:59.913Z,7.80
2023-04-19T19:20:02.483Z,7.80
2023-04-19T19:25:05.587Z,7.70
2023-04-19T19:30:08.944Z,7.70
2023-04-19T19:35:11.646Z,7.60
2023-04-19T19:40:15.141Z,7.70
2023-04-19T19:45:19.490Z,7.80
2023-04-19T19:55:28.996Z,7.80
2023-04-19T20:00:45.073Z,7.80
2023-04-19T20:05:52.131Z,7.80
2023-04-19T20:10:54.735Z,7.90
2023-04-19T20:15:58.781Z,7.90
2023-04-19T20:21:01.523Z,7.90
2023-04-19T20:26:04.110Z,7.80
2023-04-19T20:31:06.885Z,7.80
2023-04-19T20:36:09.775Z,7.70
2023-04-19T20:41:12.488Z,7.80
2023-04-19T20:46:15.134Z,7.70
2023-04-19T20:51:17.801Z,7.70
2023-04-19T20:56:20.856Z,7.80
2023-04-19T21:01:24.674Z,7.80
2023-04-19T21:06:27.890Z,7.80
2023-04-19T21:11:30.441Z,7.80
2023-04-19T21:16:33.788Z,7.80
2023-04-19T21:21:36.576Z,7.70
2023-04-19T21:26:39.383Z,7.70
2023-04-19T21:31:41.849Z,7.80
2023-04-19T21:36:44.436Z,7.70
2023-04-19T21:41:46.996Z,7.70
2023-04-19T21:46:49.686Z,7.70
2023-04-19T21:51:52.726Z,7.80
2023-04-19T21:56:55.441Z,7.80
2023-04-19T22:01:59.127Z,7.80
2023-04-19T22:07:02.776Z,7.80
2023-04-19T22:12:06.472Z,7.80
2023-04-19T22:17:10.157Z,7.80
2023-04-19T22:22:12.957Z,7.80
2023-04-19T22:27:15.475Z,7.70
2023-04-19T22:32:18.397Z,7.60
2023-04-19T22:37:21.199Z,7.70
2023-04-19T22:42:23.710Z,7.70
2023-04-19T22:47:26.411Z,7.60
2023-04-19T22:52:28.910Z,7.60
2023-04-19T22:57:31.498Z,7.60
2023-04-19T23:02:34.210Z,7.60
2023-04-19T23:07:37.015Z,7.50
2023-04-19T23:12:40.112Z,7.50
2023-04-19T23:17:42.710Z,7.50
2023-04-19T23:22:45.281Z,7.40
2023-04-19T23:27:50.260Z,7.30
2023-04-19T23:32:53.088Z,7.30
2023-04-19T23:37:55.609Z,7.30
2023-04-19T23:42:58.554Z,7.20
2023-04-19T23:48:01.317Z,7.20
2023-04-19T23:53:05.517Z,7.10
2023-04-19T23:58:08.213Z,7.10
